sensor_id;sensor_type;location;lat;lon;timestamp;pressure;altitude;pressure_sealevel;temperature
54746;BMP180;40640;48.130;11.356;2023-06-10T00:01:26;95298.00;;;19.30
54746;BMP180;40640;48.130;11.356;2023-06-10T00:05:30;95296.00;;;19.20
54746;BMP180;40640;48.130;11.356;2023-06-10T00:09:33;95290.00;;;19.10
54746;BMP180;40640;48.130;11.356;2023-06-10T00:13:37;95285.00;;;19.00
54746;BMP180;40640;48.130;11.356;2023-06-10T00:17:40;95286.00;;;18.90
54746;BMP180;40640;48.130;11.356;2023-06-10T00:21:44;95287.00;;;18.90
54746;BMP180;40640;48.130;11.356;2023-06-10T00:25:47;95283.00;;;18.90
54746;BMP180;40640;48.130;11.356;2023-06-10T00:29:51;95292.00;;;18.80
54746;BMP180;40640;48.130;11.356;2023-06-10T00:33:54;95290.00;;;18.80
54746;BMP180;40640;48.130;11.356;2023-06-10T00:37:58;95287.00;;;18.80
54746;BMP180;40640;48.130;11.356;2023-06-10T00:42:01;95288.00;;;18.70
54746;BMP180;40640;48.130;11.356;2023-06-10T00:46:10;95298.00;;;18.70
54746;BMP180;40640;48.130;11.356;2023-06-10T00:50:13;95293.00;;;18.60
54746;BMP180;40640;48.130;11.356;2023-06-10T00:54:16;95295.00;;;18.50
54746;BMP180;40640;48.130;11.356;2023-06-10T00:58:19;95284.00;;;18.50
54746;BMP180;40640;48.130;11.356;2023-06-10T01:02:25;95282.00;;;18.50
54746;BMP180;40640;48.130;11.356;2023-06-10T01:06:36;95293.00;;;18.40
54746;BMP180;40640;48.130;11.356;2023-06-10T01:10:43;95291.00;;;18.40
54746;BMP180;40640;48.130;11.356;2023-06-10T01:14:48;95290.00;;;18.40
54746;BMP180;40640;48.130;11.356;2023-06-10T01:18:54;95296.00;;;18.30
54746;BMP180;40640;48.130;11.356;2023-06-10T01:23:01;95296.00;;;18.30
54746;BMP180;40640;48.130;11.356;2023-06-10T01:27:12;95294.00;;;18.20
54746;BMP180;40640;48.130;11.356;2023-06-10T01:31:19;95302.00;;;18.20
54746;BMP180;40640;48.130;11.356;2023-06-10T01:35:26;95307.00;;;18.20
54746;BMP180;40640;48.130;11.356;2023-06-10T01:39:32;95310.00;;;18.20
54746;BMP180;40640;48.130;11.356;2023-06-10T01:43:37;95310.00;;;18.10
54746;BMP180;40640;48.130;11.356;2023-06-10T01:47:41;95302.00;;;17.90
54746;BMP180;40640;48.130;11.356;2023-06-10T01:51:44;95304.00;;;17.70
54746;BMP180;40640;48.130;11.356;2023-06-10T01:55:48;95310.00;;;17.50
54746;BMP180;40640;48.130;11.356;2023-06-10T01:59:51;95304.00;;;17.50
54746;BMP180;40640;48.130;11.356;2023-06-10T02:03:54;95308.00;;;17.50
54746;BMP180;40640;48.130;11.356;2023-06-10T02:07:57;95297.00;;;17.50
54746;BMP180;40640;48.130;11.356;2023-06-10T02:12:03;95297.00;;;17.40
54746;BMP180;40640;48.130;11.356;2023-06-10T02:16:06;95304.00;;;17.30
54746;BMP180;40640;48.130;11.356;2023-06-10T02:20:10;95311.00;;;17.30
54746;BMP180;40640;48.130;11.356;2023-06-10T02:24:13;95311.00;;;17.30
54746;BMP180;40640;48.130;11.356;2023-06-10T02:28:18;95303.00;;;17.20
54746;BMP180;40640;48.130;11.356;2023-06-10T02:32:21;95304.00;;;17.30
54746;BMP180;40640;48.130;11.356;2023-06-10T02:36:26;95301.00;;;17.30
54746;BMP180;40640;48.130;11.356;2023-06-10T02:40:30;95301.00;;;17.20
54746;BMP180;40640;48.130;11.356;2023-06-10T02:44:34;95299.00;;;17.20
54746;BMP180;40640;48.130;11.356;2023-06-10T02:48:41;95307.00;;;17.20
54746;BMP180;40640;48.130;11.356;2023-06-10T02:52:48;95298.00;;;17.20
54746;BMP180;40640;48.130;11.356;2023-06-10T02:56:52;95307.00;;;17.20
54746;BMP180;40640;48.130;11.356;2023-06-10T03:01:01;95299.00;;;16.90
54746;BMP180;40640;48.130;11.356;2023-06-10T03:05:15;95295.00;;;16.70
54746;BMP180;40640;48.130;11.356;2023-06-10T03:09:22;95313.00;;;16.50
54746;BMP180;40640;48.130;11.356;2023-06-10T03:13:29;95308.00;;;16.60
54746;BMP180;40640;48.130;11.356;2023-06-10T03:17:38;95305.00;;;16.40
54746;BMP180;40640;48.130;11.356;2023-06-10T03:21:44;95314.00;;;16.20
54746;BMP180;40640;48.130;11.356;2023-06-10T03:25:49;95314.00;;;16.30
54746;BMP180;40640;48.130;11.356;2023-06-10T03:29:53;95313.00;;;16.00
54746;BMP180;40640;48.130;11.356;2023-06-10T03:33:58;95327.00;;;15.90
54746;BMP180;40640;48.130;11.356;2023-06-10T03:38:01;95328.00;;;16.00
54746;BMP180;40640;48.130;11.356;2023-06-10T03:42:06;95333.00;;;16.00
54746;BMP180;40640;48.130;11.356;2023-06-10T03:46:09;95342.00;;;16.10
54746;BMP180;40640;48.130;11.356;2023-06-10T03:50:14;95345.00;;;16.20
54746;BMP180;40640;48.130;11.356;2023-06-10T03:54:19;95335.00;;;16.20
54746;BMP180;40640;48.130;11.356;2023-06-10T03:58:22;95333.00;;;16.20
54746;BMP180;40640;48.130;11.356;2023-06-10T04:02:26;95331.00;;;16.30
54746;BMP180;40640;48.130;11.356;2023-06-10T04:06:31;95338.00;;;16.40
54746;BMP180;40640;48.130;11.356;2023-06-10T04:10:34;95345.00;;;16.50
54746;BMP180;40640;48.130;11.356;2023-06-10T04:14:38;95343.00;;;16.50
54746;BMP180;40640;48.130;11.356;2023-06-10T04:18:44;95339.00;;;16.60
54746;BMP180;40640;48.130;11.356;2023-06-10T04:22:48;95346.00;;;16.70
54746;BMP180;40640;48.130;11.356;2023-06-10T04:26:51;95345.00;;;16.70
54746;BMP180;40640;48.130;11.356;2023-06-10T04:30:54;95353.00;;;16.80
54746;BMP180;40640;48.130;11.356;2023-06-10T04:34:59;95355.00;;;16.80
54746;BMP180;40640;48.130;11.356;2023-06-10T04:39:04;95351.00;;;17.00
54746;BMP180;40640;48.130;11.356;2023-06-10T04:43:10;95363.00;;;17.00
54746;BMP180;40640;48.130;11.356;2023-06-10T04:47:13;95358.00;;;17.10
54746;BMP180;40640;48.130;11.356;2023-06-10T04:51:16;95358.00;;;17.20
54746;BMP180;40640;48.130;11.356;2023-06-10T04:55:20;95361.00;;;17.30
54746;BMP180;40640;48.130;11.356;2023-06-10T04:59:23;95368.00;;;17.40
54746;BMP180;40640;48.130;11.356;2023-06-10T05:03:26;95360.00;;;17.50
54746;BMP180;40640;48.130;11.356;2023-06-10T05:07:29;95367.00;;;17.60
54746;BMP180;40640;48.130;11.356;2023-06-10T05:11:34;95364.00;;;17.70
54746;BMP180;40640;48.130;11.356;2023-06-10T05:15:37;95376.00;;;17.80
54746;BMP180;40640;48.130;11.356;2023-06-10T05:19:39;95371.00;;;17.90
54746;BMP180;40640;48.130;11.356;2023-06-10T05:23:43;95369.00;;;18.10
54746;BMP180;40640;48.130;11.356;2023-06-10T05:27:47;95378.00;;;18.30
54746;BMP180;40640;48.130;11.356;2023-06-10T05:31:50;95376.00;;;18.70
54746;BMP180;40640;48.130;11.356;2023-06-10T05:35:53;95370.00;;;19.00
54746;BMP180;40640;48.130;11.356;2023-06-10T05:39:56;95371.00;;;19.60
54746;BMP180;40640;48.130;11.356;2023-06-10T05:44:00;95376.00;;;21.00
54746;BMP180;40640;48.130;11.356;2023-06-10T05:48:03;95376.00;;;23.10
54746;BMP180;40640;48.130;11.356;2023-06-10T05:52:07;95373.00;;;25.20
54746;BMP180;40640;48.130;11.356;2023-06-10T05:56:10;95375.00;;;26.60
54746;BMP180;40640;48.130;11.356;2023-06-10T06:00:15;95373.00;;;27.60
54746;BMP180;40640;48.130;11.356;2023-06-10T06:04:18;95378.00;;;28.60
54746;BMP180;40640;48.130;11.356;2023-06-10T06:08:21;95384.00;;;29.60
54746;BMP180;40640;48.130;11.356;2023-06-10T06:12:24;95384.00;;;30.20
54746;BMP180;40640;48.130;11.356;2023-06-10T06:16:28;95388.00;;;30.30
54746;BMP180;40640;48.130;11.356;2023-06-10T06:20:31;95400.00;;;29.50
54746;BMP180;40640;48.130;11.356;2023-06-10T06:24:34;95398.00;;;28.00
54746;BMP180;40640;48.130;11.356;2023-06-10T06:28:37;95393.00;;;27.00
54746;BMP180;40640;48.130;11.356;2023-06-10T06:32:42;95401.00;;;26.40
54746;BMP180;40640;48.130;11.356;2023-06-10T06:36:45;95387.00;;;25.80
54746;BMP180;40640;48.130;11.356;2023-06-10T06:40:48;95395.00;;;25.40
54746;BMP180;40640;48.130;11.356;2023-06-10T06:44:51;95410.00;;;25.20
54746;BMP180;40640;48.130;11.356;2023-06-10T06:48:55;95407.00;;;25.00
54746;BMP180;40640;48.130;11.356;2023-06-10T06:52:58;95392.00;;;24.60
54746;BMP180;40640;48.130;11.356;2023-06-10T06:57:01;95405.00;;;24.60
54746;BMP180;40640;48.130;11.356;2023-06-10T07:01:04;95409.00;;;24.60
54746;BMP180;40640;48.130;11.356;2023-06-10T07:05:09;95416.00;;;24.50
54746;BMP180;40640;48.130;11.356;2023-06-10T07:09:12;95411.00;;;24.40
54746;BMP180;40640;48.130;11.356;2023-06-10T07:13:16;95409.00;;;24.60
54746;BMP180;40640;48.130;11.356;2023-06-10T07:17:18;95415.00;;;24.90
54746;BMP180;40640;48.130;11.356;2023-06-10T07:21:23;95420.00;;;24.90
54746;BMP180;40640;48.130;11.356;2023-06-10T07:25:26;95422.00;;;24.80
54746;BMP180;40640;48.130;11.356;2023-06-10T07:29:29;95417.00;;;24.90
54746;BMP180;40640;48.130;11.356;2023-06-10T07:33:32;95411.00;;;24.90
54746;BMP180;40640;48.130;11.356;2023-06-10T07:37:36;95420.00;;;25.10
54746;BMP180;40640;48.130;11.356;2023-06-10T07:41:39;95426.00;;;25.20
54746;BMP180;40640;48.130;11.356;2023-06-10T07:45:42;95418.00;;;25.30
54746;BMP180;40640;48.130;11.356;2023-06-10T07:49:45;95413.00;;;25.20
54746;BMP180;40640;48.130;11.356;2023-06-10T07:53:50;95411.00;;;25.20
54746;BMP180;40640;48.130;11.356;2023-06-10T07:57:53;95406.00;;;25.40
54746;BMP180;40640;48.130;11.356;2023-06-10T08:01:56;95409.00;;;25.10
54746;BMP180;40640;48.130;11.356;2023-06-10T08:05:59;95408.00;;;25.00
54746;BMP180;40640;48.130;11.356;2023-06-10T08:10:05;95400.00;;;25.20
54746;BMP180;40640;48.130;11.356;2023-06-10T08:14:08;95403.00;;;25.40
54746;BMP180;40640;48.130;11.356;2023-06-10T08:18:11;95406.00;;;25.20
54746;BMP180;40640;48.130;11.356;2023-06-10T08:22:14;95408.00;;;25.30
54746;BMP180;40640;48.130;11.356;2023-06-10T08:26:18;95406.00;;;25.50
54746;BMP180;40640;48.130;11.356;2023-06-10T08:30:21;95404.00;;;25.70
54746;BMP180;40640;48.130;11.356;2023-06-10T08:34:24;95400.00;;;25.70
54746;BMP180;40640;48.130;11.356;2023-06-10T08:38:27;95414.00;;;25.70
54746;BMP180;40640;48.130;11.356;2023-06-10T08:42:33;95407.00;;;25.60
54746;BMP180;40640;48.130;11.356;2023-06-10T08:46:38;95405.00;;;25.80
54746;BMP180;40640;48.130;11.356;2023-06-10T08:50:43;95408.00;;;25.70
54746;BMP180;40640;48.130;11.356;2023-06-10T08:54:49;95398.00;;;25.80
54746;BMP180;40640;48.130;11.356;2023-06-10T08:58:55;95405.00;;;25.70
54746;BMP180;40640;48.130;11.356;2023-06-10T09:02:59;95408.00;;;26.10
54746;BMP180;40640;48.130;11.356;2023-06-10T09:07:06;95409.00;;;26.00
54746;BMP180;40640;48.130;11.356;2023-06-10T09:11:09;95407.00;;;25.90
54746;BMP180;40640;48.130;11.356;2023-06-10T09:15:14;95408.00;;;26.20
54746;BMP180;40640;48.130;11.356;2023-06-10T09:19:18;95403.00;;;26.10
54746;BMP180;40640;48.130;11.356;2023-06-10T09:23:22;95410.00;;;26.20
54746;BMP180;40640;48.130;11.356;2023-06-10T09:27:25;95413.00;;;26.60
54746;BMP180;40640;48.130;11.356;2023-06-10T09:31:34;95411.00;;;26.70
54746;BMP180;40640;48.130;11.356;2023-06-10T09:35:45;95410.00;;;26.80
54746;BMP180;40640;48.130;11.356;2023-06-10T09:40:02;95416.00;;;26.60
54746;BMP180;40640;48.130;11.356;2023-06-10T09:44:11;95425.00;;;26.90
54746;BMP180;40640;48.130;11.356;2023-06-10T09:48:15;95412.00;;;27.20
54746;BMP180;40640;48.130;11.356;2023-06-10T09:52:21;95416.00;;;27.20
54746;BMP180;40640;48.130;11.356;2023-06-10T09:56:33;95412.00;;;27.10
54746;BMP180;40640;48.130;11.356;2023-06-10T10:00:36;95417.00;;;26.90
54746;BMP180;40640;48.130;11.356;2023-06-10T10:04:41;95419.00;;;26.60
54746;BMP180;40640;48.130;11.356;2023-06-10T10:08:45;95408.00;;;26.70
54746;BMP180;40640;48.130;11.356;2023-06-10T10:12:50;95416.00;;;26.90
54746;BMP180;40640;48.130;11.356;2023-06-10T10:16:54;95411.00;;;27.20
54746;BMP180;40640;48.130;11.356;2023-06-10T10:21:01;95414.00;;;27.50
54746;BMP180;40640;48.130;11.356;2023-06-10T10:25:10;95420.00;;;27.50
54746;BMP180;40640;48.130;11.356;2023-06-10T10:29:19;95417.00;;;27.60
54746;BMP180;40640;48.130;11.356;2023-06-10T10:33:29;95418.00;;;27.30
54746;BMP180;40640;48.130;11.356;2023-06-10T10:37:35;95417.00;;;27.60
54746;BMP180;40640;48.130;11.356;2023-06-10T10:41:38;95408.00;;;27.60
54746;BMP180;40640;48.130;11.356;2023-06-10T10:45:42;95408.00;;;27.50
54746;BMP180;40640;48.130;11.356;2023-06-10T10:49:45;95416.00;;;27.40
54746;BMP180;40640;48.130;11.356;2023-06-10T10:54:11;95412.00;;;27.10
54746;BMP180;40640;48.130;11.356;2023-06-10T10:58:15;95399.00;;;27.40
54746;BMP180;40640;48.130;11.356;2023-06-10T11:02:19;95407.00;;;27.30
54746;BMP180;40640;48.130;11.356;2023-06-10T11:06:34;95405.00;;;27.70
54746;BMP180;40640;48.130;11.356;2023-06-10T11:10:40;95406.00;;;28.00
54746;BMP180;40640;48.130;11.356;2023-06-10T11:14:53;95404.00;;;27.90
54746;BMP180;40640;48.130;11.356;2023-06-10T11:18:57;95406.00;;;28.30
54746;BMP180;40640;48.130;11.356;2023-06-10T11:23:01;95410.00;;;28.20
54746;BMP180;40640;48.130;11.356;2023-06-10T11:27:19;95415.00;;;27.90
54746;BMP180;40640;48.130;11.356;2023-06-10T11:31:23;95414.00;;;27.70
54746;BMP180;40640;48.130;11.356;2023-06-10T11:35:26;95402.00;;;28.10
54746;BMP180;40640;48.130;11.356;2023-06-10T11:39:29;95416.00;;;28.00
54746;BMP180;40640;48.130;11.356;2023-06-10T11:43:34;95410.00;;;28.10
54746;BMP180;40640;48.130;11.356;2023-06-10T11:47:37;95401.00;;;28.20
54746;BMP180;40640;48.130;11.356;2023-06-10T11:51:40;95398.00;;;28.60
54746;BMP180;40640;48.130;11.356;2023-06-10T11:55:51;95402.00;;;28.40
54746;BMP180;40640;48.130;11.356;2023-06-10T11:59:55;95398.00;;;29.00
54746;BMP180;40640;48.130;11.356;2023-06-10T12:04:00;95381.00;;;29.70
54746;BMP180;40640;48.130;11.356;2023-06-10T12:08:11;95390.00;;;30.30
54746;BMP180;40640;48.130;11.356;2023-06-10T12:12:14;95385.00;;;30.60
54746;BMP180;40640;48.130;11.356;2023-06-10T12:16:18;95383.00;;;31.80
54746;BMP180;40640;48.130;11.356;2023-06-10T12:20:25;95374.00;;;32.50
54746;BMP180;40640;48.130;11.356;2023-06-10T12:24:29;95377.00;;;32.50
54746;BMP180;40640;48.130;11.356;2023-06-10T12:28:32;95372.00;;;34.00
54746;BMP180;40640;48.130;11.356;2023-06-10T12:32:38;95380.00;;;34.90
54746;BMP180;40640;48.130;11.356;2023-06-10T12:36:48;95374.00;;;34.30
54746;BMP180;40640;48.130;11.356;2023-06-10T12:40:51;95373.00;;;33.30
54746;BMP180;40640;48.130;11.356;2023-06-10T12:44:54;95366.00;;;35.10
54746;BMP180;40640;48.130;11.356;2023-06-10T12:48:59;95353.00;;;35.60
54746;BMP180;40640;48.130;11.356;2023-06-10T12:53:03;95357.00;;;35.60
54746;BMP180;40640;48.130;11.356;2023-06-10T12:57:06;95354.00;;;35.80
54746;BMP180;40640;48.130;11.356;2023-06-10T13:01:09;95362.00;;;33.00
54746;BMP180;40640;48.130;11.356;2023-06-10T13:05:14;95363.00;;;31.40
54746;BMP180;40640;48.130;11.356;2023-06-10T13:09:18;95355.00;;;32.50
54746;BMP180;40640;48.130;11.356;2023-06-10T13:13:21;95354.00;;;33.00
54746;BMP180;40640;48.130;11.356;2023-06-10T13:17:24;95352.00;;;31.60
54746;BMP180;40640;48.130;11.356;2023-06-10T13:21:28;95357.00;;;30.50
54746;BMP180;40640;48.130;11.356;2023-06-10T13:25:31;95355.00;;;31.50
54746;BMP180;40640;48.130;11.356;2023-06-10T13:29:35;95346.00;;;31.70
54746;BMP180;40640;48.130;11.356;2023-06-10T13:33:38;95351.00;;;30.90
54746;BMP180;40640;48.130;11.356;2023-06-10T13:37:43;95346.00;;;31.20
54746;BMP180;40640;48.130;11.356;2023-06-10T13:41:46;95351.00;;;30.90
54746;BMP180;40640;48.130;11.356;2023-06-10T13:45:49;95362.00;;;30.20
54746;BMP180;40640;48.130;11.356;2023-06-10T13:49:52;95364.00;;;29.90
54746;BMP180;40640;48.130;11.356;2023-06-10T13:53:56;95369.00;;;29.50
54746;BMP180;40640;48.130;11.356;2023-06-10T13:57:59;95367.00;;;28.90
54746;BMP180;40640;48.130;11.356;2023-06-10T14:02:02;95366.00;;;28.60
54746;BMP180;40640;48.130;11.356;2023-06-10T14:06:05;95355.00;;;28.80
54746;BMP180;40640;48.130;11.356;2023-06-10T14:10:10;95360.00;;;28.80
54746;BMP180;40640;48.130;11.356;2023-06-10T14:14:13;95352.00;;;29.00
54746;BMP180;40640;48.130;11.356;2023-06-10T14:18:17;95356.00;;;28.60
54746;BMP180;40640;48.130;11.356;2023-06-10T14:22:19;95353.00;;;28.60
54746;BMP180;40640;48.130;11.356;2023-06-10T14:26:24;95357.00;;;28.70
54746;BMP180;40640;48.130;11.356;2023-06-10T14:30:27;95365.00;;;28.40
54746;BMP180;40640;48.130;11.356;2023-06-10T14:34:30;95361.00;;;28.30
54746;BMP180;40640;48.130;11.356;2023-06-10T14:38:35;95357.00;;;28.30
54746;BMP180;40640;48.130;11.356;2023-06-10T14:42:39;95362.00;;;28.20
54746;BMP180;40640;48.130;11.356;2023-06-10T14:46:42;95367.00;;;28.00
54746;BMP180;40640;48.130;11.356;2023-06-10T14:50:45;95359.00;;;27.90
54746;BMP180;40640;48.130;11.356;2023-06-10T14:54:52;95360.00;;;27.80
54746;BMP180;40640;48.130;11.356;2023-06-10T14:58:56;95357.00;;;27.70
54746;BMP180;40640;48.130;11.356;2023-06-10T15:02:59;95355.00;;;27.90
54746;BMP180;40640;48.130;11.356;2023-06-10T15:07:02;95356.00;;;27.40
54746;BMP180;40640;48.130;11.356;2023-06-10T15:11:05;95362.00;;;27.40
54746;BMP180;40640;48.130;11.356;2023-06-10T15:15:10;95368.00;;;27.20
54746;BMP180;40640;48.130;11.356;2023-06-10T15:19:13;95365.00;;;26.60
54746;BMP180;40640;48.130;11.356;2023-06-10T15:23:16;95356.00;;;26.80
54746;BMP180;40640;48.130;11.356;2023-06-10T15:27:19;95354.00;;;27.00
54746;BMP180;40640;48.130;11.356;2023-06-10T15:31:23;95347.00;;;27.10
54746;BMP180;40640;48.130;11.356;2023-06-10T15:35:26;95339.00;;;27.20
54746;BMP180;40640;48.130;11.356;2023-06-10T15:39:29;95339.00;;;27.20
54746;BMP180;40640;48.130;11.356;2023-06-10T15:43:32;95340.00;;;27.20
54746;BMP180;40640;48.130;11.356;2023-06-10T15:47:37;95343.00;;;27.20
54746;BMP180;40640;48.130;11.356;2023-06-10T15:51:42;95336.00;;;27.20
54746;BMP180;40640;48.130;11.356;2023-06-10T15:55:51;95337.00;;;27.20
54746;BMP180;40640;48.130;11.356;2023-06-10T15:59:54;95338.00;;;27.20
54746;BMP180;40640;48.130;11.356;2023-06-10T16:03:59;95334.00;;;27.00
54746;BMP180;40640;48.130;11.356;2023-06-10T16:08:01;95339.00;;;26.60
54746;BMP180;40640;48.130;11.356;2023-06-10T16:12:05;95344.00;;;26.70
54746;BMP180;40640;48.130;11.356;2023-06-10T16:16:08;95346.00;;;26.60
54746;BMP180;40640;48.130;11.356;2023-06-10T16:20:13;95342.00;;;26.60
54746;BMP180;40640;48.130;11.356;2023-06-10T16:24:16;95356.00;;;26.60
54746;BMP180;40640;48.130;11.356;2023-06-10T16:28:19;95360.00;;;26.70
54746;BMP180;40640;48.130;11.356;2023-06-10T16:32:21;95361.00;;;26.70
54746;BMP180;40640;48.130;11.356;2023-06-10T16:36:26;95372.00;;;26.50
54746;BMP180;40640;48.130;11.356;2023-06-10T16:40:29;95371.00;;;26.60
54746;BMP180;40640;48.130;11.356;2023-06-10T16:44:32;95381.00;;;26.40
54746;BMP180;40640;48.130;11.356;2023-06-10T16:48:35;95382.00;;;26.60
54746;BMP180;40640;48.130;11.356;2023-06-10T16:52:39;95385.00;;;26.70
54746;BMP180;40640;48.130;11.356;2023-06-10T16:56:42;95388.00;;;26.50
54746;BMP180;40640;48.130;11.356;2023-06-10T17:00:45;95383.00;;;26.00
54746;BMP180;40640;48.130;11.356;2023-06-10T17:04:47;95392.00;;;26.00
54746;BMP180;40640;48.130;11.356;2023-06-10T17:08:52;95387.00;;;26.00
54746;BMP180;40640;48.130;11.356;2023-06-10T17:12:55;95410.00;;;25.80
54746;BMP180;40640;48.130;11.356;2023-06-10T17:16:58;95405.00;;;25.50
54746;BMP180;40640;48.130;11.356;2023-06-10T17:21:01;95407.00;;;25.40
54746;BMP180;40640;48.130;11.356;2023-06-10T17:25:06;95415.00;;;25.10
54746;BMP180;40640;48.130;11.356;2023-06-10T17:29:10;95417.00;;;24.80
54746;BMP180;40640;48.130;11.356;2023-06-10T17:33:13;95416.00;;;24.90
54746;BMP180;40640;48.130;11.356;2023-06-10T17:37:16;95424.00;;;24.60
54746;BMP180;40640;48.130;11.356;2023-06-10T17:41:20;95417.00;;;24.50
54746;BMP180;40640;48.130;11.356;2023-06-10T17:45:23;95419.00;;;24.40
54746;BMP180;40640;48.130;11.356;2023-06-10T17:49:26;95428.00;;;24.60
54746;BMP180;40640;48.130;11.356;2023-06-10T17:53:33;95426.00;;;24.40
54746;BMP180;40640;48.130;11.356;2023-06-10T17:57:38;95435.00;;;24.10
54746;BMP180;40640;48.130;11.356;2023-06-10T18:01:41;95430.00;;;24.20
54746;BMP180;40640;48.130;11.356;2023-06-10T18:05:44;95429.00;;;24.10
54746;BMP180;40640;48.130;11.356;2023-06-10T18:09:46;95429.00;;;23.90
54746;BMP180;40640;48.130;11.356;2023-06-10T18:13:51;95434.00;;;23.80
54746;BMP180;40640;48.130;11.356;2023-06-10T18:17:54;95436.00;;;23.90
54746;BMP180;40640;48.130;11.356;2023-06-10T18:21:57;95432.00;;;23.60
54746;BMP180;40640;48.130;11.356;2023-06-10T18:26:00;95434.00;;;23.40
54746;BMP180;40640;48.130;11.356;2023-06-10T18:30:06;95437.00;;;23.40
54746;BMP180;40640;48.130;11.356;2023-06-10T18:34:09;95429.00;;;23.30
54746;BMP180;40640;48.130;11.356;2023-06-10T18:38:12;95446.00;;;23.40
54746;BMP180;40640;48.130;11.356;2023-06-10T18:42:15;95450.00;;;23.20
54746;BMP180;40640;48.130;11.356;2023-06-10T18:46:20;95452.00;;;23.00
54746;BMP180;40640;48.130;11.356;2023-06-10T18:50:23;95462.00;;;22.80
54746;BMP180;40640;48.130;11.356;2023-06-10T18:54:26;95454.00;;;22.80
54746;BMP180;40640;48.130;11.356;2023-06-10T18:58:30;95467.00;;;22.60
54746;BMP180;40640;48.130;11.356;2023-06-10T19:02:37;95469.00;;;22.50
54746;BMP180;40640;48.130;11.356;2023-06-10T19:06:40;95474.00;;;22.40
54746;BMP180;40640;48.130;11.356;2023-06-10T19:10:43;95484.00;;;22.20
54746;BMP180;40640;48.130;11.356;2023-06-10T19:14:46;95485.00;;;22.10
54746;BMP180;40640;48.130;11.356;2023-06-10T19:18:50;95491.00;;;22.00
54746;BMP180;40640;48.130;11.356;2023-06-10T19:22:53;95497.00;;;21.90
54746;BMP180;40640;48.130;11.356;2023-06-10T19:26:57;95505.00;;;21.80
54746;BMP180;40640;48.130;11.356;2023-06-10T19:31:00;95503.00;;;21.70
54746;BMP180;40640;48.130;11.356;2023-06-10T19:35:05;95505.00;;;21.70
54746;BMP180;40640;48.130;11.356;2023-06-10T19:39:09;95507.00;;;21.60
54746;BMP180;40640;48.130;11.356;2023-06-10T19:43:12;95512.00;;;21.50
54746;BMP180;40640;48.130;11.356;2023-06-10T19:47:15;95520.00;;;21.50
54746;BMP180;40640;48.130;11.356;2023-06-10T19:51:19;95522.00;;;21.50
54746;BMP180;40640;48.130;11.356;2023-06-10T19:55:22;95524.00;;;21.50
54746;BMP180;40640;48.130;11.356;2023-06-10T20:04:35;95530.00;;;21.40
54746;BMP180;40640;48.130;11.356;2023-06-10T20:08:40;95522.00;;;21.30
54746;BMP180;40640;48.130;11.356;2023-06-10T20:13:01;95529.00;;;21.10
54746;BMP180;40640;48.130;11.356;2023-06-10T20:17:05;95535.00;;;21.10
54746;BMP180;40640;48.130;11.356;2023-06-10T20:21:08;95544.00;;;21.00
54746;BMP180;40640;48.130;11.356;2023-06-10T20:25:12;95545.00;;;21.00
54746;BMP180;40640;48.130;11.356;2023-06-10T20:29:16;95548.00;;;20.90
54746;BMP180;40640;48.130;11.356;2023-06-10T20:33:19;95551.00;;;20.80
54746;BMP180;40640;48.130;11.356;2023-06-10T20:37:22;95553.00;;;20.70
54746;BMP180;40640;48.130;11.356;2023-06-10T20:41:26;95549.00;;;20.70
54746;BMP180;40640;48.130;11.356;2023-06-10T20:45:30;95558.00;;;20.70
54746;BMP180;40640;48.130;11.356;2023-06-10T20:49:33;95550.00;;;20.70
54746;BMP180;40640;48.130;11.356;2023-06-10T20:53:36;95549.00;;;20.50
54746;BMP180;40640;48.130;11.356;2023-06-10T20:57:40;95553.00;;;20.50
54746;BMP180;40640;48.130;11.356;2023-06-10T21:01:43;95556.00;;;20.40
54746;BMP180;40640;48.130;11.356;2023-06-10T21:05:46;95561.00;;;20.30
54746;BMP180;40640;48.130;11.356;2023-06-10T21:09:49;95557.00;;;20.20
54746;BMP180;40640;48.130;11.356;2023-06-10T21:13:53;95559.00;;;20.20
54746;BMP180;40640;48.130;11.356;2023-06-10T21:17:56;95560.00;;;20.10
54746;BMP180;40640;48.130;11.356;2023-06-10T21:21:59;95563.00;;;20.20
54746;BMP180;40640;48.130;11.356;2023-06-10T21:26:05;95565.00;;;20.10
54746;BMP180;40640;48.130;11.356;2023-06-10T21:30:10;95558.00;;;20.10
54746;BMP180;40640;48.130;11.356;2023-06-10T21:34:13;95563.00;;;20.10
54746;BMP180;40640;48.130;11.356;2023-06-10T21:38:16;95554.00;;;20.10
54746;BMP180;40640;48.130;11.356;2023-06-10T21:42:19;95559.00;;;20.10
54746;BMP180;40640;48.130;11.356;2023-06-10T21:46:23;95558.00;;;20.20
54746;BMP180;40640;48.130;11.356;2023-06-10T21:50:27;95562.00;;;20.20
54746;BMP180;40640;48.130;11.356;2023-06-10T21:54:30;95555.00;;;20.10
54746;BMP180;40640;48.130;11.356;2023-06-10T21:58:33;95565.00;;;20.10
54746;BMP180;40640;48.130;11.356;2023-06-10T22:02:38;95564.00;;;19.90
54746;BMP180;40640;48.130;11.356;2023-06-10T22:06:41;95558.00;;;20.00
54746;BMP180;40640;48.130;11.356;2023-06-10T22:10:44;95562.00;;;20.00
54746;BMP180;40640;48.130;11.356;2023-06-10T22:14:47;95558.00;;;19.90
54746;BMP180;40640;48.130;11.356;2023-06-10T22:18:51;95563.00;;;19.80
54746;BMP180;40640;48.130;11.356;2023-06-10T22:22:54;95559.00;;;19.90
54746;BMP180;40640;48.130;11.356;2023-06-10T22:26:57;95554.00;;;19.80
54746;BMP180;40640;48.130;11.356;2023-06-10T22:31:00;95558.00;;;19.80
54746;BMP180;40640;48.130;11.356;2023-06-10T22:35:05;95552.00;;;19.80
54746;BMP180;40640;48.130;11.356;2023-06-10T22:39:08;95549.00;;;19.80
54746;BMP180;40640;48.130;11.356;2023-06-10T22:43:13;95548.00;;;19.80
54746;BMP180;40640;48.130;11.356;2023-06-10T22:47:16;95547.00;;;19.80
54746;BMP180;40640;48.130;11.356;2023-06-10T22:51:21;95551.00;;;19.60
54746;BMP180;40640;48.130;11.356;2023-06-10T22:55:24;95546.00;;;19.50
54746;BMP180;40640;48.130;11.356;2023-06-10T22:59:27;95551.00;;;19.50
54746;BMP180;40640;48.130;11.356;2023-06-10T23:03:30;95546.00;;;19.50
54746;BMP180;40640;48.130;11.356;2023-06-10T23:07:34;95554.00;;;19.50
54746;BMP180;40640;48.130;11.356;2023-06-10T23:11:37;95544.00;;;19.50